createdAt,value
2023-03-22T00:01:49.091Z,97315.09
2023-03-22T00:05:56.155Z,97312.88
2023-03-22T00:09:57.514Z,97310.41
2023-03-22T00:13:58.952Z,97322.56
2023-03-22T00:18:00.371Z,97321.38
2023-03-22T00:22:03.322Z,97316.06
2023-03-22T00:26:04.837Z,97305.63
2023-03-22T00:30:06.921Z,97319.63
2023-03-22T00:34:08.391Z,97313.97
2023-03-22T00:38:11.119Z,97313.31
2023-03-22T00:42:12.443Z,97310.19
2023-03-22T00:46:14.424Z,97309.66
2023-03-22T00:50:15.899Z,97296.63
2023-03-22T00:54:18.656Z,97298.94
2023-03-22T00:58:20.081Z,97299.44
2023-03-22T01:02:21.421Z,97295.59
2023-03-22T01:06:22.782Z,97302.06
2023-03-22T01:10:25.488Z,97295.59
2023-03-22T01:14:27.416Z,97282.78
2023-03-22T01:18:28.769Z,97283.97
2023-03-22T01:22:30.169Z,97286.59
2023-03-22T01:26:32.939Z,97274.56
2023-03-22T01:30:34.313Z,97267.44
2023-03-22T01:34:35.712Z,97266.69
2023-03-22T01:38:37.066Z,97253.50
2023-03-22T01:42:39.785Z,97260.97
2023-03-22T01:46:41.243Z,97260.97
2023-03-22T01:50:45.257Z,97260.88
2023-03-22T01:54:47.758Z,97261.03
2023-03-22T01:58:51.553Z,97265.63
2023-03-22T02:02:53.236Z,97250.88
2023-03-22T02:06:55.071Z,97260.06
2023-03-22T02:10:56.448Z,97245.94
2023-03-22T02:15:03.265Z,97249.34
2023-03-22T02:19:14.812Z,97237.28
2023-03-22T02:23:34.165Z,97227.34
2023-03-22T02:27:50.423Z,97244.03
2023-03-22T02:32:04.714Z,97237.84
2023-03-22T02:36:19.027Z,97222.31
2023-03-22T02:40:25.639Z,97229.22
2023-03-22T02:44:33.490Z,97217.91
2023-03-22T02:48:39.303Z,97214.56
2023-03-22T02:52:43.121Z,97227.34
2023-03-22T02:56:48.324Z,97227.09
2023-03-22T03:00:52.013Z,97234.59
2023-03-22T03:04:54.068Z,97230.75
2023-03-22T03:08:55.778Z,97220.72
2023-03-22T03:12:59.217Z,97219.44
2023-03-22T03:17:06.386Z,97225.84
2023-03-22T03:21:12.208Z,97226.13
2023-03-22T03:25:18.066Z,97226.16
2023-03-22T03:29:22.569Z,97224.75
2023-03-22T03:33:25.425Z,97231.44
2023-03-22T03:37:29.399Z,97224.91
2023-03-22T03:41:31.742Z,97230.81
2023-03-22T03:45:35.370Z,97213.91
2023-03-22T03:49:36.780Z,97214.97
2023-03-22T03:53:38.131Z,97229.09
2023-03-22T03:57:39.521Z,97232.78
2023-03-22T04:01:42.416Z,97237.50
2023-03-22T04:05:44.012Z,97235.31
2023-03-22T04:09:45.392Z,97231.03
2023-03-22T04:13:46.763Z,97223.94
2023-03-22T04:17:49.566Z,97224.50
2023-03-22T04:21:50.910Z,97239.53
2023-03-22T04:25:52.312Z,97240.97
2023-03-22T04:29:53.636Z,97236.41
2023-03-22T04:33:56.370Z,97229.75
2023-03-22T04:37:57.725Z,97237.25
2023-03-22T04:41:59.120Z,97225.81
2023-03-22T04:46:00.779Z,97226.13
2023-03-22T04:50:03.659Z,97221.81
2023-03-22T04:54:05.329Z,97225.91
2023-03-22T04:58:06.662Z,97222.31
2023-03-22T05:02:07.993Z,97224.81
2023-03-22T05:06:11.137Z,97230.03
2023-03-22T05:10:12.590Z,97231.16
2023-03-22T05:14:13.938Z,97234.22
2023-03-22T05:18:15.609Z,97232.31
2023-03-22T05:22:18.523Z,97233.41
2023-03-22T05:26:19.898Z,97236.16
2023-03-22T05:30:21.224Z,97228.09
2023-03-22T05:34:22.564Z,97225.38
2023-03-22T05:38:25.261Z,97234.97
2023-03-22T05:42:26.637Z,97239.88
2023-03-22T05:46:28.040Z,97237.13
2023-03-22T05:50:29.395Z,97236.53
2023-03-22T05:54:32.121Z,97235.97
2023-03-22T05:58:33.473Z,97236.19
2023-03-22T06:02:35.090Z,97231.47
2023-03-22T06:06:36.458Z,97241.72
2023-03-22T06:10:39.408Z,97243.22
2023-03-22T06:14:40.898Z,97244.34
2023-03-22T06:18:42.274Z,97239.44
2023-03-22T06:22:43.645Z,97247.13
2023-03-22T06:26:46.366Z,97242.47
2023-03-22T06:30:47.848Z,97237.94
2023-03-22T06:34:49.212Z,97238.34
2023-03-22T06:38:50.624Z,97239.00
2023-03-22T06:42:53.605Z,97227.78
2023-03-22T06:46:55.107Z,97237.28
2023-03-22T06:50:56.473Z,97244.13
2023-03-22T06:54:57.840Z,97243.28
2023-03-22T06:59:00.571Z,97249.22
2023-03-22T07:03:01.922Z,97248.50
2023-03-22T07:07:03.262Z,97253.94
2023-03-22T07:11:05.005Z,97240.41
2023-03-22T07:15:08.668Z,97237.75
2023-03-22T07:19:10.091Z,97241.84
2023-03-22T07:23:11.448Z,97242.84
2023-03-22T07:27:12.819Z,97251.34
2023-03-22T07:31:15.666Z,97260.81
2023-03-22T07:35:17.242Z,97249.25
2023-03-22T07:39:18.636Z,97247.31
2023-03-22T07:43:20.017Z,97247.00
2023-03-22T07:47:39.547Z,97258.41
2023-03-22T07:51:42.018Z,97249.91
2023-03-22T07:55:43.427Z,97249.16
2023-03-22T07:59:44.783Z,97236.78
2023-03-22T08:03:47.516Z,97240.06
2023-03-22T08:07:48.872Z,97248.88
2023-03-22T08:11:50.215Z,97238.56
2023-03-22T08:15:51.573Z,97245.91
2023-03-22T08:19:54.311Z,97232.78
2023-03-22T08:23:55.643Z,97234.59
2023-03-22T08:27:57.241Z,97240.13
2023-03-22T08:31:58.682Z,97242.81
2023-03-22T08:36:11.923Z,97238.44
2023-03-22T08:40:13.533Z,97238.31
2023-03-22T08:44:14.904Z,97238.25
2023-03-22T08:48:16.438Z,97234.66
2023-03-22T08:52:19.207Z,97231.56
2023-03-22T08:56:20.576Z,97222.28
2023-03-22T09:00:21.963Z,97219.59
2023-03-22T09:04:23.370Z,97218.56
2023-03-22T09:08:26.151Z,97207.94
2023-03-22T09:12:27.551Z,97209.44
2023-03-22T09:16:29.082Z,97207.50
2023-03-22T09:20:30.465Z,97202.81
2023-03-22T09:24:33.193Z,97196.50
2023-03-22T09:28:35.101Z,97201.94
2023-03-22T09:32:36.679Z,97194.38
2023-03-22T09:36:38.027Z,97190.97
2023-03-22T09:40:50.424Z,97195.84
2023-03-22T09:44:52.204Z,97191.66
2023-03-22T09:48:53.606Z,97189.69
2023-03-22T09:52:55.124Z,97181.38
2023-03-22T09:57:00.178Z,97171.44
2023-03-22T10:01:05.196Z,97174.31
2023-03-22T10:05:13.318Z,97170.81
2023-03-22T10:09:16.514Z,97166.75
2023-03-22T10:13:23.499Z,97156.41
2023-03-22T10:17:26.319Z,97160.97
2023-03-22T10:21:27.758Z,97160.03
2023-03-22T10:25:33.348Z,97156.78
2023-03-22T10:29:38.304Z,97164.34
2023-03-22T10:33:42.538Z,97152.31
2023-03-22T10:37:46.156Z,97153.63
2023-03-22T10:41:48.665Z,97151.44
2023-03-22T10:45:52.530Z,97147.81
2023-03-22T10:49:55.957Z,97153.84
2023-03-22T10:53:57.773Z,97136.16
2023-03-22T10:58:05.008Z,97154.44
2023-03-22T11:02:16.496Z,97139.94
2023-03-22T11:06:19.065Z,97144.41
2023-03-22T11:10:25.030Z,97138.00
2023-03-22T11:14:29.391Z,97127.66
2023-03-22T11:18:32.988Z,97122.03
2023-03-22T11:22:36.119Z,97117.66
2023-03-22T11:26:40.758Z,97095.78
2023-03-22T11:30:56.935Z,97107.78
2023-03-22T11:35:00.920Z,97099.22
2023-03-22T11:39:05.870Z,97088.41
2023-03-22T11:43:12.401Z,97088.31
2023-03-22T11:47:14.116Z,97080.63
2023-03-22T11:51:18.094Z,97078.31
2023-03-22T11:55:19.831Z,97078.84
2023-03-22T11:59:23.093Z,97064.22
2023-03-22T12:03:27.479Z,97065.03
2023-03-22T12:07:31.589Z,97051.06
2023-03-22T12:11:35.921Z,97056.22
2023-03-22T12:15:40.202Z,97032.16
2023-03-22T12:19:45.954Z,97024.75
2023-03-22T12:23:48.715Z,97031.06
2023-03-22T12:27:53.233Z,97028.72
2023-03-22T12:31:59.014Z,97022.59
2023-03-22T12:36:02.626Z,97019.59
2023-03-22T12:40:07.713Z,97013.97
2023-03-22T12:44:13.725Z,97013.38
2023-03-22T12:48:18.917Z,97007.78
2023-03-22T12:52:23.832Z,97010.38
2023-03-22T12:56:29.558Z,97009.13
2023-03-22T13:00:34.645Z,96991.56
2023-03-22T13:04:49.354Z,96989.97
2023-03-22T13:09:17.694Z,96986.84
2023-03-22T13:13:37.824Z,96990.75
2023-03-22T13:17:44.834Z,96981.34
2023-03-22T13:21:47.914Z,96992.81
2023-03-22T13:25:59.854Z,96979.09
2023-03-22T13:30:01.354Z,96975.00
2023-03-22T13:34:04.393Z,96976.94
2023-03-22T13:38:08.427Z,96969.94
2023-03-22T13:42:18.016Z,96971.19
2023-03-22T13:46:43.193Z,96973.50
2023-03-22T13:50:45.997Z,96965.81
2023-03-22T13:54:49.431Z,96962.34
2023-03-22T13:58:51.716Z,96954.09
2023-03-22T14:02:53.543Z,96953.91
2023-03-22T14:06:58.503Z,96939.94
2023-03-22T14:11:02.490Z,96938.22
2023-03-22T14:15:06.501Z,96933.19
2023-03-22T14:19:08.536Z,96932.56
